Time;durP1;ratioP1;P1;durP2;ratioP2;P2;SDS_P1;SDS_P2;PMS_P1;PMS_P2;Temp;Humidity;BMP_temperature;BMP_pressure;BME280_temperature;BME280_humidity;BME280_pressure;Samples;Min_cycle;Max_cycle;Signal;HPM_P1;HPM_P2
2023/11/01 00:01:37;;;;;;;0.30;0.20;;;14.20;99.90;;;;;;5115766;28;20235;-88
2023/11/01 00:04:03;;;;;;;0.30;0.20;;;14.20;99.90;;;;;;5113792;28;20352;-88
2023/11/01 00:06:28;;;;;;;0.30;0.20;;;14.10;99.90;;;;;;5108039;28;20182;-88
2023/11/01 00:08:56;;;;;;;0.30;0.20;;;14.10;99.90;;;;;;5107933;28;20848;-92
2023/11/01 00:11:22;;;;;;;0.30;0.20;;;14.10;99.90;;;;;;5106353;28;20178;-87
2023/11/01 00:13:48;;;;;;;0.30;0.20;;;14.00;99.90;;;;;;5105924;28;20550;-88
2023/11/01 00:16:14;;;;;;;0.30;0.20;;;14.00;99.90;;;;;;5107189;28;20772;-91
2023/11/01 00:18:39;;;;;;;0.30;0.20;;;13.90;99.90;;;;;;5105752;28;20191;-90
2023/11/01 00:21:05;;;;;;;0.30;0.20;;;13.90;99.90;;;;;;5105711;28;20175;-88
2023/11/01 00:23:31;;;;;;;0.30;0.20;;;13.90;99.90;;;;;;5107093;28;20944;-88
2023/11/01 00:25:57;;;;;;;0.30;0.20;;;13.90;99.90;;;;;;5105883;28;20511;-88
2023/11/01 00:28:22;;;;;;;0.30;0.20;;;13.90;99.90;;;;;;5105468;28;20196;-88
2023/11/01 00:30:48;;;;;;;0.40;0.20;;;13.90;99.90;;;;;;5105517;28;20852;-90
2023/11/01 00:33:14;;;;;;;0.30;0.20;;;13.90;99.90;;;;;;5105745;28;20199;-88
2023/11/01 00:35:40;;;;;;;0.30;0.20;;;13.90;99.90;;;;;;5107302;28;20384;-92
2023/11/01 00:38:07;;;;;;;0.37;0.20;;;13.90;99.90;;;;;;5106112;28;20539;-90
2023/11/01 00:40:32;;;;;;;0.30;0.20;;;13.90;99.90;;;;;;5106828;28;20409;-92
2023/11/01 00:42:58;;;;;;;0.30;0.20;;;13.90;99.90;;;;;;5104947;28;20436;-87
2023/11/01 00:45:24;;;;;;;0.30;0.20;;;13.90;99.90;;;;;;5105726;28;20468;-89
2023/11/01 00:47:50;;;;;;;0.30;0.20;;;13.90;99.90;;;;;;5107547;28;20168;-88
2023/11/01 00:50:15;;;;;;;0.40;0.30;;;13.90;99.90;;;;;;5107352;28;20926;-91
2023/11/01 00:52:41;;;;;;;0.30;0.20;;;13.90;99.90;;;;;;5106328;28;20171;-87
2023/11/01 00:55:07;;;;;;;0.30;0.20;;;14.00;99.90;;;;;;5106966;28;20252;-92
2023/11/01 00:57:33;;;;;;;0.30;0.20;;;14.00;99.90;;;;;;5106776;28;20168;-88
2023/11/01 00:59:59;;;;;;;0.30;0.20;;;14.00;99.90;;;;;;5105311;28;20420;-88
2023/11/01 01:02:25;;;;;;;0.30;0.20;;;14.00;99.90;;;;;;5108057;28;20764;-88
2023/11/01 01:04:51;;;;;;;0.30;0.20;;;14.00;99.90;;;;;;5105478;28;20482;-88
2023/11/01 01:07:16;;;;;;;1.03;1.03;;;14.00;99.90;;;;;;5105400;28;21139;-87
2023/11/01 01:09:42;;;;;;;0.30;0.20;;;14.00;99.90;;;;;;5105064;28;20230;-88
2023/11/01 01:12:08;;;;;;;0.30;0.20;;;14.00;99.90;;;;;;5106213;28;20183;-90
2023/11/01 01:14:34;;;;;;;0.30;0.20;;;14.00;99.90;;;;;;5105200;28;20261;-92
2023/11/01 01:16:59;;;;;;;0.30;0.20;;;14.00;99.90;;;;;;5108682;28;20258;-88
2023/11/01 01:19:25;;;;;;;0.30;0.20;;;14.00;99.90;;;;;;5117916;28;20203;-89
2023/11/01 01:21:52;;;;;;;0.30;0.20;;;14.00;99.90;;;;;;5118903;28;20264;-91
2023/11/01 01:24:17;;;;;;;0.30;0.20;;;14.00;99.90;;;;;;5114579;28;20666;-93
2023/11/01 01:26:43;;;;;;;0.30;0.20;;;14.00;99.90;;;;;;5110158;28;20408;-92
2023/11/01 01:29:09;;;;;;;0.30;0.20;;;14.00;99.90;;;;;;5109153;28;20207;-88
2023/11/01 01:31:35;;;;;;;0.30;0.20;;;13.90;99.90;;;;;;5109097;28;20510;-88
2023/11/01 01:34:00;;;;;;;0.30;0.20;;;13.90;99.90;;;;;;5109923;28;20257;-91
2023/11/01 01:36:26;;;;;;;0.30;0.20;;;13.90;99.90;;;;;;5111107;28;20176;-88
2023/11/01 01:38:52;;;;;;;0.30;0.20;;;13.90;99.90;;;;;;5109295;28;20450;-91
2023/11/01 01:41:18;;;;;;;0.30;0.20;;;13.80;99.90;;;;;;5109976;27;20408;-88
2023/11/01 01:43:44;;;;;;;0.30;0.20;;;13.80;99.90;;;;;;5108470;28;20542;-87
2023/11/01 01:46:13;;;;;;;0.60;0.60;;;13.80;99.90;;;;;;5107745;28;20438;-88
2023/11/01 01:48:40;;;;;;;0.30;0.20;;;13.80;99.90;;;;;;5110744;28;20679;-88
2023/11/01 01:51:07;;;;;;;0.30;0.20;;;13.70;99.90;;;;;;5109667;28;20404;-88
2023/11/01 01:53:38;;;;;;;1.17;1.07;;;13.70;99.90;;;;;;5108057;28;20447;-88
2023/11/01 01:56:07;;;;;;;0.30;0.20;;;13.70;99.90;;;;;;5110019;28;20389;-92
2023/11/01 01:58:34;;;;;;;0.30;0.20;;;13.70;99.90;;;;;;5108409;28;21026;-88
2023/11/01 02:01:00;;;;;;;0.30;0.20;;;13.60;99.90;;;;;;5108628;28;20678;-92
2023/11/01 02:03:26;;;;;;;0.30;0.20;;;13.60;99.90;;;;;;5111242;28;20944;-88
2023/11/01 02:05:52;;;;;;;0.30;0.20;;;13.50;99.90;;;;;;5108669;28;20424;-89
2023/11/01 02:08:18;;;;;;;0.30;0.20;;;13.50;99.90;;;;;;5108821;28;20349;-91
2023/11/01 02:10:44;;;;;;;0.30;0.20;;;13.50;99.90;;;;;;5108957;28;20595;-89
2023/11/01 02:13:16;;;;;;;0.30;0.20;;;13.40;99.90;;;;;;5108289;28;20519;-88
2023/11/01 02:15:44;;;;;;;0.30;0.20;;;13.40;99.90;;;;;;5110467;28;20219;-92
2023/11/01 02:18:10;;;;;;;0.30;0.20;;;13.40;99.90;;;;;;5108315;28;20456;-88
2023/11/01 02:20:39;;;;;;;0.30;0.20;;;13.30;99.90;;;;;;5109326;28;20687;-87
2023/11/01 02:23:11;;;;;;;0.30;0.20;;;13.30;99.90;;;;;;5107837;28;20867;-92
2023/11/01 02:25:38;;;;;;;0.30;0.20;;;13.30;99.90;;;;;;5109213;28;20813;-91
2023/11/01 02:28:05;;;;;;;0.30;0.20;;;13.30;99.90;;;;;;5108467;28;20447;-92
2023/11/01 02:30:31;;;;;;;0.30;0.20;;;13.30;99.90;;;;;;5108203;28;20568;-87
2023/11/01 02:32:57;;;;;;;0.30;0.20;;;13.20;99.90;;;;;;5108226;28;20609;-92
2023/11/01 02:35:23;;;;;;;0.30;0.20;;;13.20;99.90;;;;;;5108422;28;21029;-88
2023/11/01 02:37:49;;;;;;;0.30;0.20;;;13.20;99.90;;;;;;5108722;28;20172;-88
2023/11/01 02:40:16;;;;;;;0.30;0.20;;;13.10;99.90;;;;;;5108993;28;20412;-87
2023/11/01 02:42:43;;;;;;;0.30;0.20;;;13.10;99.90;;;;;;5118872;28;20565;-88
2023/11/01 02:45:10;;;;;;;0.30;0.20;;;13.00;99.90;;;;;;5122744;28;20444;-88
2023/11/01 02:47:40;;;;;;;0.30;0.20;;;13.00;99.90;;;;;;5112485;28;20927;-88
2023/11/01 02:50:11;;;;;;;0.30;0.20;;;13.00;99.90;;;;;;5109504;28;20417;-88
2023/11/01 02:52:38;;;;;;;0.30;0.20;;;13.00;99.90;;;;;;5109024;28;20647;-92
2023/11/01 02:55:09;;;;;;;0.30;0.20;;;13.00;99.90;;;;;;5108870;28;20475;-88
2023/11/01 02:57:34;;;;;;;0.30;0.20;;;13.00;99.90;;;;;;5107641;28;20457;-92
2023/11/01 03:00:06;;;;;;;0.30;0.20;;;13.00;99.90;;;;;;5108199;28;20540;-92
2023/11/01 03:02:32;;;;;;;0.30;0.20;;;12.90;99.90;;;;;;5107783;28;20510;-88
2023/11/01 03:04:58;;;;;;;0.30;0.20;;;12.90;99.90;;;;;;5107163;28;20485;-87
2023/11/01 03:07:23;;;;;;;0.30;0.20;;;12.80;99.90;;;;;;5107267;28;20416;-92
2023/11/01 03:09:49;;;;;;;0.30;0.20;;;12.80;99.90;;;;;;5108390;28;20195;-88
2023/11/01 03:12:15;;;;;;;0.30;0.20;;;12.80;99.90;;;;;;5108509;28;21021;-91
2023/11/01 03:14:41;;;;;;;0.30;0.20;;;12.80;99.90;;;;;;5108065;28;20269;-89
2023/11/01 03:17:07;;;;;;;0.30;0.20;;;12.80;99.90;;;;;;5110101;28;20409;-91
2023/11/01 03:19:33;;;;;;;4.93;1.63;;;12.80;99.90;;;;;;5108296;28;20530;-92
2023/11/01 03:21:59;;;;;;;0.30;0.20;;;12.70;99.90;;;;;;5115664;28;20551;-91
2023/11/01 03:24:24;;;;;;;0.80;0.80;;;12.70;99.90;;;;;;5117528;28;20215;-91
2023/11/01 03:26:50;;;;;;;0.30;0.20;;;12.70;99.90;;;;;;5115888;28;20277;-88
2023/11/01 03:29:19;;;;;;;0.30;0.20;;;12.60;99.90;;;;;;5111477;28;20604;-90
2023/11/01 03:31:44;;;;;;;0.30;0.20;;;12.60;99.90;;;;;;5114099;28;20181;-86
2023/11/01 03:34:11;;;;;;;0.30;0.20;;;12.60;99.90;;;;;;5117260;28;20492;-87
2023/11/01 03:36:37;;;;;;;0.30;0.30;;;12.50;99.90;;;;;;5118077;28;20179;-88
2023/11/01 03:39:06;;;;;;;0.30;0.20;;;12.50;99.90;;;;;;5112412;28;20781;-87
2023/11/01 03:41:31;;;;;;;0.30;0.30;;;12.50;99.90;;;;;;5107242;28;20955;-91
2023/11/01 03:43:59;;;;;;;0.30;0.20;;;12.50;99.90;;;;;;5117358;28;20459;-88
2023/11/01 03:46:24;;;;;;;0.30;0.20;;;12.40;99.90;;;;;;5107386;28;20592;-88
2023/11/01 03:48:50;;;;;;;0.40;0.20;;;12.40;99.90;;;;;;5106216;28;20204;-86
2023/11/01 03:51:16;;;;;;;0.30;0.20;;;12.40;99.90;;;;;;5107379;28;20208;-91
2023/11/01 03:53:42;;;;;;;0.30;0.20;;;12.30;99.90;;;;;;5106713;28;20479;-91
2023/11/01 03:56:08;;;;;;;0.40;0.20;;;12.30;99.90;;;;;;5107830;28;20248;-89
2023/11/01 03:58:34;;;;;;;0.30;0.20;;;12.30;99.90;;;;;;5105820;28;20368;-87
2023/11/01 04:01:00;;;;;;;0.30;0.20;;;12.30;99.90;;;;;;5107989;28;20412;-88
2023/11/01 04:03:26;;;;;;;0.30;0.20;;;12.30;99.90;;;;;;5106198;28;21055;-88
2023/11/01 04:05:53;;;;;;;0.30;0.30;;;12.30;99.90;;;;;;5106491;28;20412;-88
2023/11/01 04:08:18;;;;;;;0.30;0.20;;;12.30;99.90;;;;;;5106469;28;20448;-91
2023/11/01 04:10:45;;;;;;;0.40;0.30;;;12.40;99.90;;;;;;5107348;28;20512;-88
2023/11/01 04:13:11;;;;;;;0.40;0.20;;;12.30;99.90;;;;;;5106334;28;20215;-92
2023/11/01 04:15:37;;;;;;;1.65;1.58;;;12.30;99.90;;;;;;5106350;28;20646;-88
2023/11/01 04:18:03;;;;;;;6.33;5.40;;;12.30;99.90;;;;;;5105299;28;20282;-92
2023/11/01 04:20:29;;;;;;;2.55;2.45;;;12.30;99.90;;;;;;5106255;28;20529;-91
2023/11/01 04:22:54;;;;;;;0.30;0.30;;;12.30;99.90;;;;;;5105906;28;20295;-87
2023/11/01 04:25:20;;;;;;;0.90;0.90;;;12.20;99.90;;;;;;5107967;28;20818;-87
2023/11/01 04:27:46;;;;;;;2.83;2.70;;;12.20;99.90;;;;;;5106045;28;20176;-87
2023/11/01 04:30:13;;;;;;;4.33;1.50;;;12.20;99.90;;;;;;5106679;28;21176;-91
2023/11/01 04:32:40;;;;;;;0.30;0.30;;;12.20;99.90;;;;;;5115091;28;20410;-88
2023/11/01 04:35:10;;;;;;;0.30;0.20;;;12.20;99.90;;;;;;5113055;28;20239;-88
2023/11/01 04:37:40;;;;;;;0.30;0.20;;;12.10;99.90;;;;;;5106459;28;20167;-92
2023/11/01 04:40:11;;;;;;;0.30;0.20;;;12.10;99.90;;;;;;5111207;28;20164;-90
2023/11/01 04:42:41;;;;;;;0.30;0.20;;;12.10;99.90;;;;;;5109643;28;20246;-89
2023/11/01 04:45:08;;;;;;;0.30;0.20;;;12.10;99.90;;;;;;5108045;28;20176;-92
2023/11/01 04:47:39;;;;;;;0.30;0.20;;;12.10;99.90;;;;;;5104981;28;20251;-88
2023/11/01 04:50:11;;;;;;;0.30;0.20;;;12.10;99.90;;;;;;5106379;28;20252;-92
2023/11/01 04:52:42;;;;;;;0.30;0.20;;;12.10;99.90;;;;;;5109736;28;20187;-91
2023/11/01 04:55:10;;;;;;;0.30;0.20;;;12.10;99.90;;;;;;5110932;28;20266;-92
2023/11/01 04:57:36;;;;;;;0.30;0.20;;;12.10;99.90;;;;;;5110783;28;20254;-91
2023/11/01 05:00:11;;;;;;;0.30;0.20;;;12.00;99.90;;;;;;5110701;28;20184;-92
2023/11/01 05:02:37;;;;;;;0.30;0.20;;;12.00;99.90;;;;;;5110197;28;20167;-86
2023/11/01 05:05:05;;;;;;;0.30;0.20;;;12.00;99.90;;;;;;5109990;28;20398;-87
2023/11/01 05:07:32;;;;;;;0.30;0.20;;;11.90;99.90;;;;;;5110158;28;20640;-87
2023/11/01 05:09:58;;;;;;;0.30;0.20;;;11.90;99.90;;;;;;5110302;28;20894;-88
2023/11/01 05:12:23;;;;;;;0.30;0.20;;;11.90;99.90;;;;;;5109155;28;20218;-90
2023/11/01 05:14:49;;;;;;;0.30;0.20;;;11.90;99.90;;;;;;5111011;28;20211;-92
2023/11/01 05:17:15;;;;;;;0.30;0.20;;;11.90;99.90;;;;;;5109772;28;20768;-88
2023/11/01 05:19:40;;;;;;;0.30;0.20;;;11.90;99.90;;;;;;5109268;28;20572;-91
2023/11/01 05:22:06;;;;;;;0.30;0.20;;;11.90;99.90;;;;;;5111702;28;20380;-90
2023/11/01 05:24:32;;;;;;;0.30;0.20;;;11.90;99.90;;;;;;5110706;28;20203;-91
2023/11/01 05:26:58;;;;;;;0.30;0.30;;;11.90;99.90;;;;;;5111036;28;20164;-90
2023/11/01 05:29:23;;;;;;;0.30;0.20;;;11.90;99.90;;;;;;5108989;28;20294;-92
2023/11/01 05:31:49;;;;;;;0.30;0.20;;;11.80;99.90;;;;;;5110483;28;20932;-91
2023/11/01 05:34:15;;;;;;;0.30;0.20;;;11.80;99.90;;;;;;5109590;28;20538;-92
2023/11/01 05:36:40;;;;;;;0.30;0.20;;;11.80;99.90;;;;;;5109689;28;20266;-91
2023/11/01 05:39:07;;;;;;;0.30;0.20;;;11.80;99.90;;;;;;5113023;28;20195;-88
2023/11/01 05:41:33;;;;;;;0.30;0.20;;;11.80;99.90;;;;;;5113468;28;20258;-88
2023/11/01 05:43:59;;;;;;;1.30;1.13;;;11.80;99.90;;;;;;5113947;28;20257;-88
2023/11/01 05:46:26;;;;;;;0.30;0.20;;;11.80;99.90;;;;;;5124805;28;20400;-87
2023/11/01 05:48:51;;;;;;;1.30;1.30;;;11.80;99.90;;;;;;5114449;28;20876;-88
2023/11/01 05:51:17;;;;;;;0.30;0.20;;;11.90;99.90;;;;;;5108622;28;20213;-87
2023/11/01 05:53:44;;;;;;;3.87;2.43;;;11.90;99.90;;;;;;5108907;28;20204;-91
2023/11/01 05:56:10;;;;;;;0.30;0.30;;;11.90;99.90;;;;;;5108848;28;20415;-90
2023/11/01 05:58:36;;;;;;;0.30;0.20;;;11.90;99.90;;;;;;5108933;28;20196;-91
2023/11/01 06:01:03;;;;;;;2.25;1.75;;;11.90;99.90;;;;;;5110306;28;20229;-88
2023/11/01 06:03:29;;;;;;;0.30;0.20;;;12.00;99.90;;;;;;5108415;28;20203;-92
2023/11/01 06:05:57;;;;;;;0.30;0.20;;;12.00;99.90;;;;;;5111044;28;20172;-87
2023/11/01 06:08:24;;;;;;;0.40;0.40;;;12.00;99.90;;;;;;5110250;28;20435;-91
2023/11/01 06:10:49;;;;;;;1.33;1.33;;;12.00;99.90;;;;;;5108090;28;20685;-87
2023/11/01 06:13:15;;;;;;;0.30;0.20;;;12.00;99.90;;;;;;5109619;28;20286;-87
2023/11/01 06:15:41;;;;;;;0.40;0.30;;;12.00;99.90;;;;;;5108031;28;20525;-88
2023/11/01 06:18:06;;;;;;;0.30;0.20;;;12.10;99.90;;;;;;5107671;28;20256;-87
2023/11/01 06:20:33;;;;;;;0.30;0.20;;;12.10;99.90;;;;;;5108492;28;20512;-88
2023/11/01 06:22:59;;;;;;;0.30;0.20;;;12.20;99.90;;;;;;5108352;28;20200;-87
2023/11/01 06:25:25;;;;;;;0.30;0.30;;;12.20;99.90;;;;;;5108324;28;20447;-89
2023/11/01 06:27:51;;;;;;;1.37;0.87;;;12.30;99.90;;;;;;5108210;28;21128;-88
2023/11/01 06:30:17;;;;;;;0.30;0.20;;;12.30;99.90;;;;;;5107636;28;20176;-90
2023/11/01 06:32:42;;;;;;;0.30;0.20;;;12.40;99.90;;;;;;5108797;28;20632;-89
2023/11/01 06:35:08;;;;;;;0.30;0.20;;;12.40;99.90;;;;;;5107078;28;20739;-87
2023/11/01 06:37:34;;;;;;;0.30;0.20;;;12.50;99.90;;;;;;5110704;28;20795;-91
2023/11/01 06:40:05;;;;;;;0.30;0.20;;;12.50;99.90;;;;;;5109362;28;20412;-92
2023/11/01 06:42:31;;;;;;;0.30;0.20;;;12.60;99.90;;;;;;5108368;28;20456;-91
2023/11/01 06:44:57;;;;;;;0.30;0.20;;;12.70;99.90;;;;;;5107674;28;20196;-92
2023/11/01 06:47:23;;;;;;;0.30;0.20;;;12.80;99.90;;;;;;5106790;28;20916;-87
2023/11/01 06:49:49;;;;;;;0.30;0.20;;;12.80;99.90;;;;;;5107829;28;20432;-90
2023/11/01 06:52:15;;;;;;;0.30;0.20;;;12.80;99.90;;;;;;5110367;28;20251;-89
2023/11/01 06:54:43;;;;;;;0.30;0.20;;;12.90;99.90;;;;;;5107876;28;20890;-89
2023/11/01 06:57:11;;;;;;;0.30;0.20;;;13.00;99.90;;;;;;5107709;28;20412;-88
2023/11/01 06:59:41;;;;;;;0.30;0.20;;;13.10;99.90;;;;;;5108225;28;20451;-91
2023/11/01 07:02:07;;;;;;;0.30;0.20;;;13.20;99.90;;;;;;5115262;27;20415;-87
2023/11/01 07:04:33;;;;;;;0.30;0.20;;;13.40;99.90;;;;;;5114626;28;20448;-87
2023/11/01 07:06:59;;;;;;;0.30;0.20;;;13.60;99.90;;;;;;5116899;28;20392;-87
2023/11/01 07:09:24;;;;;;;0.40;0.20;;;13.90;99.90;;;;;;5112302;28;20207;-88
2023/11/01 07:11:50;;;;;;;0.30;0.20;;;14.10;99.90;;;;;;5107997;28;20404;-91
2023/11/01 07:14:17;;;;;;;0.40;0.20;;;14.20;99.90;;;;;;5113092;28;20223;-92
2023/11/01 07:16:45;;;;;;;0.30;0.20;;;14.40;99.90;;;;;;5115397;28;20679;-88
2023/11/01 07:19:11;;;;;;;0.40;0.20;;;14.60;99.90;;;;;;5112735;28;20484;-91
2023/11/01 07:21:39;;;;;;;0.40;0.20;;;14.70;99.90;;;;;;5110686;28;20978;-88
2023/11/01 07:24:09;;;;;;;0.30;0.20;;;14.90;99.90;;;;;;5108774;28;20515;-92
2023/11/01 07:26:37;;;;;;;0.37;0.20;;;15.10;99.90;;;;;;5116961;28;20828;-88
2023/11/01 07:29:03;;;;;;;0.40;0.20;;;15.50;99.90;;;;;;5114405;28;20436;-88
2023/11/01 07:31:29;;;;;;;0.33;0.20;;;16.00;99.90;;;;;;5106871;28;20415;-91
2023/11/01 07:33:55;;;;;;;0.30;0.20;;;16.40;99.90;;;;;;5106234;28;20475;-92
2023/11/01 07:36:21;;;;;;;0.40;0.20;;;17.00;99.90;;;;;;5106867;28;20435;-91
2023/11/01 07:38:47;;;;;;;0.40;0.30;;;17.70;99.90;;;;;;5107322;28;20282;-88
2023/11/01 07:41:15;;;;;;;0.30;0.20;;;18.40;99.90;;;;;;5107135;28;20401;-88
2023/11/01 07:43:41;;;;;;;0.40;0.20;;;19.10;99.90;;;;;;5106710;28;20539;-92
2023/11/01 07:46:11;;;;;;;0.40;0.40;;;19.80;99.90;;;;;;5107640;28;20461;-88
2023/11/01 07:48:37;;;;;;;0.40;0.20;;;20.60;99.90;;;;;;5105937;27;20521;-93
2023/11/01 07:51:05;;;;;;;0.40;0.20;;;21.40;99.90;;;;;;5107688;28;20487;-92
2023/11/01 07:53:31;;;;;;;0.40;0.20;;;22.10;99.90;;;;;;5107977;28;20432;-89
2023/11/01 07:55:58;;;;;;;0.30;0.20;;;22.70;99.90;;;;;;5107466;28;20455;-88
2023/11/01 07:58:23;;;;;;;0.87;0.87;;;23.20;99.90;;;;;;5106528;28;20504;-92
2023/11/01 08:00:50;;;;;;;0.40;0.30;;;23.70;99.90;;;;;;5107272;28;21140;-88
2023/11/01 08:03:16;;;;;;;0.30;0.20;;;24.20;99.90;;;;;;5106461;28;21002;-92
2023/11/01 08:05:41;;;;;;;0.40;0.20;;;24.50;99.90;;;;;;5106915;28;20414;-92
2023/11/01 08:08:07;;;;;;;0.30;0.20;;;25.00;99.90;;;;;;5108027;28;20184;-88
2023/11/01 08:10:33;;;;;;;0.40;0.20;;;25.50;99.90;;;;;;5104322;28;20172;-88
2023/11/01 08:12:59;;;;;;;0.30;0.20;;;25.90;99.30;;;;;;5105878;28;20777;-92
2023/11/01 08:15:25;;;;;;;0.40;0.30;;;26.00;98.90;;;;;;5104642;28;20600;-93
2023/11/01 08:17:51;;;;;;;0.30;0.20;;;26.20;98.50;;;;;;5107239;28;20416;-88
2023/11/01 08:20:17;;;;;;;0.30;0.20;;;26.50;97.80;;;;;;5107011;28;20427;-91
2023/11/01 08:22:42;;;;;;;0.30;0.20;;;26.50;97.20;;;;;;5106875;28;20172;-92
2023/11/01 08:25:08;;;;;;;0.30;0.20;;;26.20;96.90;;;;;;5110711;28;20272;-88
2023/11/01 08:27:35;;;;;;;0.30;0.20;;;26.00;96.70;;;;;;5113168;28;20190;-92
2023/11/01 08:30:00;;;;;;;0.30;0.20;;;25.70;96.30;;;;;;5113009;28;20423;-88
2023/11/01 08:32:26;;;;;;;0.30;0.20;;;25.30;96.70;;;;;;5107220;28;20490;-90
2023/11/01 08:34:53;;;;;;;0.30;0.20;;;24.90;96.60;;;;;;5106649;28;20280;-93
2023/11/01 08:37:21;;;;;;;0.30;0.20;;;24.40;97.30;;;;;;5107355;28;20209;-92
2023/11/01 08:39:47;;;;;;;1.53;0.57;;;23.60;97.40;;;;;;5106082;28;20447;-93
2023/11/01 08:42:13;;;;;;;0.30;0.20;;;23.00;98.30;;;;;;5105900;28;20417;-92
2023/11/01 08:44:39;;;;;;;0.30;0.20;;;22.20;98.60;;;;;;5105809;28;20196;-87
2023/11/01 08:47:04;;;;;;;0.40;0.20;;;21.50;99.90;;;;;;5105710;28;20180;-89
2023/11/01 08:49:31;;;;;;;0.77;0.77;;;21.00;99.90;;;;;;5104825;28;20703;-92
2023/11/01 08:51:57;;;;;;;0.30;0.20;;;20.60;99.90;;;;;;5105685;28;20206;-92
2023/11/01 08:54:24;;;;;;;0.30;0.20;;;20.30;99.90;;;;;;5105435;28;20549;-92
2023/11/01 08:56:51;;;;;;;0.30;0.20;;;20.10;99.90;;;;;;5106426;28;20943;-92
2023/11/01 08:59:17;;;;;;;0.30;0.20;;;20.00;99.90;;;;;;5106299;28;20944;-88
2023/11/01 09:01:43;;;;;;;0.30;0.20;;;19.70;99.90;;;;;;5106759;28;20900;-87
2023/11/01 09:04:11;;;;;;;0.40;0.20;;;19.50;99.90;;;;;;5105004;28;20563;-88
2023/11/01 09:06:36;;;;;;;0.30;0.20;;;19.40;99.90;;;;;;5106939;28;20176;-92
2023/11/01 09:09:02;;;;;;;0.40;0.20;;;19.20;99.90;;;;;;5106583;28;20445;-87
2023/11/01 09:11:29;;;;;;;0.30;0.20;;;19.10;99.90;;;;;;5106564;28;20434;-91
2023/11/01 09:13:55;;;;;;;0.30;0.20;;;18.90;99.90;;;;;;5105828;28;20542;-92
2023/11/01 09:16:20;;;;;;;0.40;0.20;;;18.90;99.90;;;;;;5105841;28;20513;-88
2023/11/01 09:18:46;;;;;;;0.40;0.20;;;18.80;99.90;;;;;;5105612;28;20248;-87
2023/11/01 09:21:12;;;;;;;0.30;0.20;;;18.80;99.90;;;;;;5105448;28;20184;-91
2023/11/01 09:23:37;;;;;;;0.30;0.20;;;18.90;99.90;;;;;;5106161;28;20198;-88
2023/11/01 09:26:05;;;;;;;0.30;0.20;;;18.90;99.90;;;;;;5103198;28;20186;-88
2023/11/01 09:28:31;;;;;;;0.30;0.20;;;18.90;99.90;;;;;;5104620;28;20667;-88
2023/11/01 09:30:57;;;;;;;0.30;0.20;;;18.60;99.90;;;;;;5103001;28;20429;-92
2023/11/01 09:33:23;;;;;;;0.30;0.20;;;18.50;99.90;;;;;;5103756;28;20233;-92
2023/11/01 09:35:49;;;;;;;0.40;0.30;;;18.30;99.90;;;;;;5104836;28;20554;-92
2023/11/01 09:38:15;;;;;;;0.57;0.57;;;18.10;99.90;;;;;;5107789;28;20457;-93
2023/11/01 09:40:43;;;;;;;0.30;0.20;;;18.10;99.90;;;;;;5109185;28;20435;-92
2023/11/01 09:43:18;;;;;;;0.30;0.20;;;18.00;99.90;;;;;;5108601;28;20192;-88
2023/11/01 09:45:45;;;;;;;0.30;0.20;;;17.90;99.90;;;;;;5107480;28;20410;-92
2023/11/01 09:48:10;;;;;;;0.30;0.20;;;17.90;99.90;;;;;;5101069;28;20490;-92
2023/11/01 09:50:37;;;;;;;0.30;0.20;;;18.00;99.90;;;;;;5087761;28;20417;-88
2023/11/01 09:53:03;;;;;;;0.30;0.20;;;17.90;99.90;;;;;;5086704;28;20221;-88
2023/11/01 09:55:29;;;;;;;0.30;0.20;;;17.90;99.90;;;;;;5088979;28;20466;-90
2023/11/01 09:57:55;;;;;;;0.30;0.20;;;17.90;99.90;;;;;;5093356;28;20194;-87
2023/11/01 10:00:22;;;;;;;0.30;0.20;;;17.90;99.90;;;;;;5089238;28;20549;-88
2023/11/01 10:02:48;;;;;;;0.30;0.20;;;18.00;99.90;;;;;;5088971;28;20413;-92
2023/11/01 10:05:13;;;;;;;0.30;0.20;;;18.00;99.90;;;;;;5086311;28;20418;-91
2023/11/01 10:07:39;;;;;;;0.50;0.47;;;18.10;99.90;;;;;;5089508;28;20174;-91
2023/11/01 10:10:06;;;;;;;0.30;0.20;;;18.10;99.90;;;;;;5089139;28;20202;-92
2023/11/01 10:12:32;;;;;;;0.30;0.20;;;18.20;99.90;;;;;;5087873;28;20202;-86
2023/11/01 10:14:57;;;;;;;0.30;0.20;;;18.30;99.90;;;;;;5089397;28;21032;-91
2023/11/01 10:17:24;;;;;;;0.30;0.20;;;18.30;99.90;;;;;;5089199;28;20219;-88
2023/11/01 10:19:50;;;;;;;0.30;0.20;;;18.30;99.90;;;;;;5087267;28;20227;-86
2023/11/01 10:22:16;;;;;;;0.30;0.20;;;18.30;99.90;;;;;;5087352;28;20453;-90
2023/11/01 10:24:43;;;;;;;0.30;0.20;;;18.30;99.90;;;;;;5087653;28;20196;-91
2023/11/01 10:27:08;;;;;;;0.30;0.20;;;18.40;99.90;;;;;;5089840;28;20404;-91
2023/11/01 10:29:43;;;;;;;0.30;0.20;;;18.40;99.90;;;;;;5090052;28;20515;-87
2023/11/01 10:32:10;;;;;;;0.30;0.20;;;18.50;99.90;;;;;;5087779;28;20184;-86
2023/11/01 10:34:36;;;;;;;0.30;0.20;;;18.50;99.90;;;;;;5086391;28;20486;-90
2023/11/01 10:37:04;;;;;;;0.30;0.20;;;18.60;99.90;;;;;;5088964;28;20812;-87
2023/11/01 10:39:36;;;;;;;0.30;0.20;;;18.60;99.90;;;;;;5087072;28;20983;-87
2023/11/01 10:42:03;;;;;;;0.30;0.20;;;18.50;99.90;;;;;;5090451;28;20400;-91
2023/11/01 10:44:30;;;;;;;0.30;0.20;;;18.60;99.90;;;;;;5088307;28;20990;-91
2023/11/01 10:46:57;;;;;;;0.30;0.20;;;18.60;99.90;;;;;;5087784;28;21002;-87
2023/11/01 10:49:25;;;;;;;1.13;1.13;;;18.60;99.90;;;;;;5087237;28;20508;-91
2023/11/01 10:51:52;;;;;;;0.30;0.20;;;18.70;99.90;;;;;;5086546;28;20423;-91
2023/11/01 10:54:18;;;;;;;0.30;0.20;;;18.70;99.90;;;;;;5088048;28;20466;-87
2023/11/01 10:56:46;;;;;;;0.40;0.37;;;18.80;99.90;;;;;;5088939;28;20786;-87
2023/11/01 10:59:52;;;;;;;0.30;0.20;;;18.80;99.90;;;;;;5086723;28;20809;-87
2023/11/01 11:02:37;;;;;;;0.30;0.20;;;18.90;99.90;;;;;;5098385;28;20412;-91
2023/11/01 11:05:07;;;;;;;0.30;0.20;;;18.90;99.90;;;;;;5089831;28;20436;-88
2023/11/01 11:07:48;;;;;;;0.30;0.20;;;18.90;99.90;;;;;;5093134;28;20455;-91
2023/11/01 11:10:33;;;;;;;0.30;0.20;;;18.80;99.90;;;;;;5094552;28;20430;-93
2023/11/01 11:13:16;;;;;;;0.30;0.20;;;18.80;99.90;;;;;;5091200;28;21086;-88
2023/11/01 11:18:20;;;;;;;0.30;0.20;;;19.00;99.90;;;;;;5090152;28;20444;-92
2023/11/01 11:20:46;;;;;;;0.30;0.20;;;19.00;99.90;;;;;;5090881;28;20692;-88
2023/11/01 11:23:14;;;;;;;0.30;0.20;;;19.00;99.90;;;;;;5092825;28;20444;-88
2023/11/01 11:25:48;;;;;;;0.30;0.20;;;19.10;99.90;;;;;;5086569;28;20479;-88
2023/11/01 11:28:29;;;;;;;0.30;0.20;;;19.10;99.90;;;;;;5087231;28;21028;-88
2023/11/01 11:31:08;;;;;;;0.30;0.20;;;19.10;99.90;;;;;;5086419;28;20424;-88
2023/11/01 11:33:35;;;;;;;0.30;0.20;;;19.10;99.90;;;;;;5086478;28;20472;-87
2023/11/01 11:36:08;;;;;;;0.30;0.20;;;19.10;99.90;;;;;;5085624;28;21011;-92
2023/11/01 11:38:35;;;;;;;0.30;0.20;;;19.10;99.90;;;;;;5087930;28;20450;-92
2023/11/01 11:41:19;;;;;;;0.30;0.20;;;19.10;99.90;;;;;;5086623;28;20800;-92
2023/11/01 11:44:06;;;;;;;0.30;0.20;;;19.20;99.90;;;;;;5087442;28;20447;-88
2023/11/01 11:46:45;;;;;;;0.30;0.30;;;19.20;99.90;;;;;;5086986;28;20435;-92
2023/11/01 11:49:24;;;;;;;0.30;0.20;;;19.30;99.90;;;;;;5086187;28;20482;-91
2023/11/01 11:51:54;;;;;;;0.30;0.30;;;19.30;99.90;;;;;;5085536;28;20423;-91
2023/11/01 11:54:22;;;;;;;0.30;0.20;;;19.30;99.90;;;;;;5085473;28;20479;-88
2023/11/01 11:56:56;;;;;;;0.30;0.20;;;19.30;99.90;;;;;;5087081;28;20912;-92
2023/11/01 11:59:26;;;;;;;0.30;0.20;;;19.30;99.90;;;;;;5088175;28;20935;-91
2023/11/01 12:02:04;;;;;;;0.30;0.20;;;19.40;99.90;;;;;;5085203;28;20438;-87
2023/11/01 12:04:32;;;;;;;0.30;0.20;;;19.30;99.90;;;;;;5085827;28;20956;-87
2023/11/01 12:06:58;;;;;;;0.30;0.20;;;19.20;99.90;;;;;;5086021;28;20469;-88
2023/11/01 12:09:25;;;;;;;0.30;0.20;;;19.20;99.90;;;;;;5085512;28;20853;-87
2023/11/01 12:11:59;;;;;;;0.30;0.20;;;19.30;99.90;;;;;;5086014;28;20179;-87
2023/11/01 12:14:27;;;;;;;0.30;0.20;;;19.30;99.90;;;;;;5086436;28;20459;-87
2023/11/01 12:16:54;;;;;;;0.40;0.40;;;19.30;99.90;;;;;;5085993;28;20821;-92
2023/11/01 12:19:22;;;;;;;0.30;0.20;;;19.40;99.90;;;;;;5085915;28;20493;-91
2023/11/01 12:22:01;;;;;;;0.30;0.20;;;19.40;99.90;;;;;;5086270;28;20420;-92
2023/11/01 12:24:39;;;;;;;0.30;0.20;;;19.40;99.90;;;;;;5085772;28;20438;-92
2023/11/01 12:27:06;;;;;;;0.30;0.20;;;19.50;99.90;;;;;;5085530;28;20495;-92
2023/11/01 12:29:51;;;;;;;0.30;0.20;;;19.40;99.90;;;;;;5085457;28;20491;-87
2023/11/01 12:32:19;;;;;;;0.30;0.20;;;19.40;99.90;;;;;;5088914;28;20424;-92
2023/11/01 12:34:48;;;;;;;0.30;0.20;;;19.50;99.90;;;;;;5090567;28;20490;-93
2023/11/01 12:37:23;;;;;;;0.30;0.20;;;19.50;99.90;;;;;;5087690;28;20445;-92
2023/11/01 12:40:18;;;;;;;0.30;0.20;;;19.60;99.90;;;;;;5084984;28;20447;-88
2023/11/01 12:42:49;;;;;;;0.30;0.20;;;19.60;99.90;;;;;;5084114;28;21022;-88
2023/11/01 12:45:17;;;;;;;0.30;0.20;;;19.60;99.90;;;;;;5085288;28;20448;-88
2023/11/01 12:47:44;;;;;;;0.30;0.20;;;19.70;99.90;;;;;;5085592;28;20515;-88
2023/11/01 12:50:12;;;;;;;0.30;0.20;;;19.70;99.90;;;;;;5085152;28;20424;-92
2023/11/01 12:52:38;;;;;;;0.30;0.20;;;19.60;99.90;;;;;;5094028;28;20456;-92